sensor_id;sensor_type;location;lat;lon;timestamp;P1;durP1;ratioP1;P2;durP2;ratioP2
4198;SDS011;2113;50.946;14.610;2023-04-24T00:01:55;10.95;;;6.95;;
4198;SDS011;2113;50.946;14.610;2023-04-24T00:04:26;11.98;;;6.78;;
4198;SDS011;2113;50.946;14.610;2023-04-24T00:06:54;10.70;;;6.03;;
4198;SDS011;2113;50.946;14.610;2023-04-24T00:09:24;12.10;;;7.07;;
4198;SDS011;2113;50.946;14.610;2023-04-24T00:11:52;14.00;;;6.25;;
4198;SDS011;2113;50.946;14.610;2023-04-24T00:14:21;9.15;;;5.90;;
4198;SDS011;2113;50.946;14.610;2023-04-24T00:16:49;6.82;;;4.50;;
4198;SDS011;2113;50.946;14.610;2023-04-24T00:19:18;11.40;;;5.57;;
4198;SDS011;2113;50.946;14.610;2023-04-24T00:21:49;8.93;;;5.65;;
4198;SDS011;2113;50.946;14.610;2023-04-24T00:24:18;6.43;;;4.53;;
4198;SDS011;2113;50.946;14.610;2023-04-24T00:26:46;7.38;;;5.88;;
4198;SDS011;2113;50.946;14.610;2023-04-24T00:29:14;7.03;;;4.75;;
4198;SDS011;2113;50.946;14.610;2023-04-24T00:31:42;7.38;;;5.75;;
4198;SDS011;2113;50.946;14.610;2023-04-24T00:34:11;10.05;;;6.47;;
4198;SDS011;2113;50.946;14.610;2023-04-24T00:36:39;10.90;;;5.95;;
4198;SDS011;2113;50.946;14.610;2023-04-24T00:39:09;8.93;;;5.07;;
4198;SDS011;2113;50.946;14.610;2023-04-24T00:41:37;11.63;;;6.00;;
4198;SDS011;2113;50.946;14.610;2023-04-24T00:44:05;8.50;;;5.95;;
4198;SDS011;2113;50.946;14.610;2023-04-24T00:46:34;13.23;;;7.55;;
4198;SDS011;2113;50.946;14.610;2023-04-24T00:49:03;11.50;;;8.02;;
4198;SDS011;2113;50.946;14.610;2023-04-24T00:51:32;9.80;;;6.20;;
4198;SDS011;2113;50.946;14.610;2023-04-24T00:54:01;9.32;;;5.80;;
4198;SDS011;2113;50.946;14.610;2023-04-24T00:56:30;11.65;;;6.35;;
4198;SDS011;2113;50.946;14.610;2023-04-24T00:58:58;11.65;;;7.18;;
4198;SDS011;2113;50.946;14.610;2023-04-24T01:01:27;11.57;;;5.88;;
4198;SDS011;2113;50.946;14.610;2023-04-24T01:03:57;10.02;;;6.65;;
4198;SDS011;2113;50.946;14.610;2023-04-24T01:06:27;8.75;;;6.05;;
4198;SDS011;2113;50.946;14.610;2023-04-24T01:08:57;11.68;;;6.43;;
4198;SDS011;2113;50.946;14.610;2023-04-24T01:11:30;10.75;;;6.18;;
4198;SDS011;2113;50.946;14.610;2023-04-24T01:13:58;11.13;;;7.60;;
4198;SDS011;2113;50.946;14.610;2023-04-24T01:16:27;11.30;;;7.18;;
4198;SDS011;2113;50.946;14.610;2023-04-24T01:18:56;10.40;;;7.20;;
4198;SDS011;2113;50.946;14.610;2023-04-24T01:21:25;11.40;;;6.88;;
4198;SDS011;2113;50.946;14.610;2023-04-24T01:23:57;9.85;;;7.28;;
4198;SDS011;2113;50.946;14.610;2023-04-24T01:26:26;10.90;;;7.75;;
4198;SDS011;2113;50.946;14.610;2023-04-24T01:28:54;13.45;;;8.00;;
4198;SDS011;2113;50.946;14.610;2023-04-24T01:31:23;12.60;;;8.30;;
4198;SDS011;2113;50.946;14.610;2023-04-24T01:33:51;16.63;;;7.93;;
4198;SDS011;2113;50.946;14.610;2023-04-24T01:36:20;11.50;;;9.10;;
4198;SDS011;2113;50.946;14.610;2023-04-24T01:38:52;14.10;;;8.07;;
4198;SDS011;2113;50.946;14.610;2023-04-24T01:41:22;12.07;;;7.88;;
4198;SDS011;2113;50.946;14.610;2023-04-24T01:43:51;11.43;;;8.23;;
4198;SDS011;2113;50.946;14.610;2023-04-24T01:46:20;10.80;;;7.78;;
4198;SDS011;2113;50.946;14.610;2023-04-24T01:48:48;14.50;;;8.35;;
4198;SDS011;2113;50.946;14.610;2023-04-24T01:51:18;13.95;;;8.10;;
4198;SDS011;2113;50.946;14.610;2023-04-24T01:53:47;15.02;;;8.80;;
4198;SDS011;2113;50.946;14.610;2023-04-24T01:56:15;12.35;;;9.07;;
4198;SDS011;2113;50.946;14.610;2023-04-24T01:58:45;11.30;;;9.13;;
4198;SDS011;2113;50.946;14.610;2023-04-24T02:01:14;14.35;;;8.90;;
4198;SDS011;2113;50.946;14.610;2023-04-24T02:03:47;12.65;;;8.05;;
4198;SDS011;2113;50.946;14.610;2023-04-24T02:06:15;13.98;;;10.13;;
4198;SDS011;2113;50.946;14.610;2023-04-24T02:08:43;13.10;;;8.20;;
4198;SDS011;2113;50.946;14.610;2023-04-24T02:11:12;19.25;;;10.00;;
4198;SDS011;2113;50.946;14.610;2023-04-24T02:13:40;15.93;;;10.35;;
4198;SDS011;2113;50.946;14.610;2023-04-24T02:16:09;13.88;;;9.75;;
4198;SDS011;2113;50.946;14.610;2023-04-24T02:18:38;15.48;;;10.48;;
4198;SDS011;2113;50.946;14.610;2023-04-24T02:21:06;12.90;;;10.15;;
4198;SDS011;2113;50.946;14.610;2023-04-24T02:23:34;13.90;;;9.05;;
4198;SDS011;2113;50.946;14.610;2023-04-24T02:26:04;11.43;;;8.85;;
4198;SDS011;2113;50.946;14.610;2023-04-24T02:28:32;13.20;;;8.63;;
4198;SDS011;2113;50.946;14.610;2023-04-24T02:31:00;13.68;;;9.75;;
4198;SDS011;2113;50.946;14.610;2023-04-24T02:33:30;13.50;;;9.05;;
4198;SDS011;2113;50.946;14.610;2023-04-24T02:35:58;12.90;;;7.63;;
4198;SDS011;2113;50.946;14.610;2023-04-24T02:38:27;13.27;;;7.57;;
4198;SDS011;2113;50.946;14.610;2023-04-24T02:40:55;11.10;;;7.63;;
4198;SDS011;2113;50.946;14.610;2023-04-24T02:43:25;11.70;;;7.88;;
4198;SDS011;2113;50.946;14.610;2023-04-24T02:45:53;9.93;;;7.57;;
4198;SDS011;2113;50.946;14.610;2023-04-24T02:48:22;13.90;;;7.55;;
4198;SDS011;2113;50.946;14.610;2023-04-24T02:50:51;13.23;;;7.68;;
4198;SDS011;2113;50.946;14.610;2023-04-24T02:53:20;9.90;;;7.65;;
4198;SDS011;2113;50.946;14.610;2023-04-24T02:55:48;11.88;;;7.85;;
4198;SDS011;2113;50.946;14.610;2023-04-24T02:58:16;12.20;;;7.53;;
4198;SDS011;2113;50.946;14.610;2023-04-24T03:00:46;11.70;;;7.78;;
4198;SDS011;2113;50.946;14.610;2023-04-24T03:03:15;8.75;;;5.95;;
4198;SDS011;2113;50.946;14.610;2023-04-24T03:05:43;9.35;;;6.07;;
4198;SDS011;2113;50.946;14.610;2023-04-24T03:08:13;11.45;;;6.72;;
4198;SDS011;2113;50.946;14.610;2023-04-24T03:10:43;9.45;;;6.15;;
4198;SDS011;2113;50.946;14.610;2023-04-24T03:13:15;9.82;;;6.25;;
4198;SDS011;2113;50.946;14.610;2023-04-24T03:15:43;11.90;;;7.35;;
4198;SDS011;2113;50.946;14.610;2023-04-24T03:18:13;8.93;;;6.32;;
4198;SDS011;2113;50.946;14.610;2023-04-24T03:20:42;10.30;;;6.72;;
4198;SDS011;2113;50.946;14.610;2023-04-24T03:23:14;10.65;;;6.55;;
4198;SDS011;2113;50.946;14.610;2023-04-24T03:25:43;11.10;;;7.53;;
4198;SDS011;2113;50.946;14.610;2023-04-24T03:28:12;10.38;;;7.10;;
4198;SDS011;2113;50.946;14.610;2023-04-24T03:30:48;13.45;;;8.82;;
4198;SDS011;2113;50.946;14.610;2023-04-24T03:33:17;14.52;;;10.57;;
4198;SDS011;2113;50.946;14.610;2023-04-24T03:35:55;11.77;;;9.05;;
4198;SDS011;2113;50.946;14.610;2023-04-24T03:38:25;11.30;;;8.80;;
4198;SDS011;2113;50.946;14.610;2023-04-24T03:41:00;12.68;;;8.95;;
4198;SDS011;2113;50.946;14.610;2023-04-24T03:43:35;13.82;;;9.60;;
4198;SDS011;2113;50.946;14.610;2023-04-24T03:46:04;17.05;;;10.18;;
4198;SDS011;2113;50.946;14.610;2023-04-24T03:48:37;15.07;;;10.02;;
4198;SDS011;2113;50.946;14.610;2023-04-24T03:51:07;14.10;;;9.90;;
4198;SDS011;2113;50.946;14.610;2023-04-24T03:53:40;14.68;;;10.68;;
4198;SDS011;2113;50.946;14.610;2023-04-24T03:56:10;13.02;;;9.60;;
4198;SDS011;2113;50.946;14.610;2023-04-24T03:58:39;12.40;;;9.20;;
4198;SDS011;2113;50.946;14.610;2023-04-24T04:01:09;14.65;;;10.80;;
4198;SDS011;2113;50.946;14.610;2023-04-24T04:03:53;19.48;;;12.60;;
4198;SDS011;2113;50.946;14.610;2023-04-24T04:06:24;20.67;;;14.07;;
4198;SDS011;2113;50.946;14.610;2023-04-24T04:08:56;22.35;;;15.80;;
4198;SDS011;2113;50.946;14.610;2023-04-24T04:11:24;21.58;;;13.55;;
4198;SDS011;2113;50.946;14.610;2023-04-24T04:13:53;22.45;;;15.60;;
4198;SDS011;2113;50.946;14.610;2023-04-24T04:16:21;27.55;;;17.17;;
4198;SDS011;2113;50.946;14.610;2023-04-24T04:18:55;29.48;;;16.55;;
4198;SDS011;2113;50.946;14.610;2023-04-24T04:21:24;27.48;;;17.17;;
4198;SDS011;2113;50.946;14.610;2023-04-24T04:24:03;31.13;;;18.38;;
4198;SDS011;2113;50.946;14.610;2023-04-24T04:26:42;31.88;;;19.33;;
4198;SDS011;2113;50.946;14.610;2023-04-24T04:29:24;28.02;;;16.88;;
4198;SDS011;2113;50.946;14.610;2023-04-24T04:31:53;32.92;;;18.25;;
4198;SDS011;2113;50.946;14.610;2023-04-24T04:34:22;25.02;;;14.98;;
4198;SDS011;2113;50.946;14.610;2023-04-24T04:36:51;24.25;;;15.88;;
4198;SDS011;2113;50.946;14.610;2023-04-24T04:39:35;26.13;;;15.75;;
4198;SDS011;2113;50.946;14.610;2023-04-24T04:42:06;26.05;;;14.98;;
4198;SDS011;2113;50.946;14.610;2023-04-24T04:44:39;25.00;;;15.63;;
4198;SDS011;2113;50.946;14.610;2023-04-24T04:47:11;28.30;;;16.48;;
4198;SDS011;2113;50.946;14.610;2023-04-24T04:49:41;27.65;;;15.57;;
4198;SDS011;2113;50.946;14.610;2023-04-24T04:52:18;27.92;;;15.65;;
4198;SDS011;2113;50.946;14.610;2023-04-24T04:54:52;25.00;;;14.63;;
4198;SDS011;2113;50.946;14.610;2023-04-24T04:57:26;26.25;;;15.05;;
4198;SDS011;2113;50.946;14.610;2023-04-24T04:59:55;23.15;;;14.60;;
4198;SDS011;2113;50.946;14.610;2023-04-24T05:02:36;22.52;;;14.70;;
4198;SDS011;2113;50.946;14.610;2023-04-24T05:05:05;24.27;;;14.77;;
4198;SDS011;2113;50.946;14.610;2023-04-24T05:07:35;23.45;;;14.40;;
4198;SDS011;2113;50.946;14.610;2023-04-24T05:10:06;21.10;;;14.07;;
4198;SDS011;2113;50.946;14.610;2023-04-24T05:12:35;24.98;;;14.90;;
4198;SDS011;2113;50.946;14.610;2023-04-24T05:15:03;24.15;;;13.50;;
4198;SDS011;2113;50.946;14.610;2023-04-24T05:17:32;20.65;;;13.82;;
4198;SDS011;2113;50.946;14.610;2023-04-24T05:20:01;24.38;;;13.98;;
4198;SDS011;2113;50.946;14.610;2023-04-24T05:22:32;23.33;;;13.80;;
4198;SDS011;2113;50.946;14.610;2023-04-24T05:25:01;20.50;;;13.40;;
4198;SDS011;2113;50.946;14.610;2023-04-24T05:27:42;22.90;;;14.38;;
4198;SDS011;2113;50.946;14.610;2023-04-24T05:30:14;19.25;;;12.65;;
4198;SDS011;2113;50.946;14.610;2023-04-24T05:32:43;19.40;;;11.57;;
4198;SDS011;2113;50.946;14.610;2023-04-24T05:35:12;20.42;;;12.18;;
4198;SDS011;2113;50.946;14.610;2023-04-24T05:37:40;16.02;;;10.52;;
4198;SDS011;2113;50.946;14.610;2023-04-24T05:40:10;22.17;;;12.00;;
4198;SDS011;2113;50.946;14.610;2023-04-24T05:42:38;19.38;;;11.32;;
4198;SDS011;2113;50.946;14.610;2023-04-24T05:45:09;18.33;;;11.57;;
4198;SDS011;2113;50.946;14.610;2023-04-24T05:47:43;16.75;;;11.35;;
4198;SDS011;2113;50.946;14.610;2023-04-24T05:50:12;16.35;;;11.02;;
4198;SDS011;2113;50.946;14.610;2023-04-24T05:52:40;18.40;;;11.10;;
4198;SDS011;2113;50.946;14.610;2023-04-24T05:55:21;18.85;;;11.52;;
4198;SDS011;2113;50.946;14.610;2023-04-24T05:57:50;16.92;;;11.25;;
4198;SDS011;2113;50.946;14.610;2023-04-24T06:00:21;16.20;;;9.75;;
4198;SDS011;2113;50.946;14.610;2023-04-24T06:02:57;18.45;;;10.23;;
4198;SDS011;2113;50.946;14.610;2023-04-24T06:05:26;13.32;;;9.90;;
4198;SDS011;2113;50.946;14.610;2023-04-24T06:07:55;19.38;;;11.30;;
4198;SDS011;2113;50.946;14.610;2023-04-24T06:10:26;13.75;;;9.60;;
4198;SDS011;2113;50.946;14.610;2023-04-24T06:12:55;18.70;;;12.15;;
4198;SDS011;2113;50.946;14.610;2023-04-24T06:15:30;16.10;;;9.60;;
4198;SDS011;2113;50.946;14.610;2023-04-24T06:18:11;21.73;;;10.50;;
4198;SDS011;2113;50.946;14.610;2023-04-24T06:20:40;14.75;;;9.73;;
4198;SDS011;2113;50.946;14.610;2023-04-24T06:23:09;12.85;;;8.13;;
4198;SDS011;2113;50.946;14.610;2023-04-24T06:25:37;14.73;;;9.73;;
4198;SDS011;2113;50.946;14.610;2023-04-24T06:28:06;13.98;;;8.77;;
4198;SDS011;2113;50.946;14.610;2023-04-24T06:30:36;11.40;;;7.85;;
4198;SDS011;2113;50.946;14.610;2023-04-24T06:33:04;14.13;;;8.35;;
4198;SDS011;2113;50.946;14.610;2023-04-24T06:35:46;14.15;;;8.77;;
4198;SDS011;2113;50.946;14.610;2023-04-24T06:38:14;13.48;;;7.85;;
4198;SDS011;2113;50.946;14.610;2023-04-24T06:40:43;11.75;;;8.20;;
4198;SDS011;2113;50.946;14.610;2023-04-24T06:43:11;12.02;;;7.57;;
4198;SDS011;2113;50.946;14.610;2023-04-24T06:45:43;10.55;;;7.70;;
4198;SDS011;2113;50.946;14.610;2023-04-24T06:48:12;12.38;;;7.97;;
4198;SDS011;2113;50.946;14.610;2023-04-24T06:50:40;14.32;;;7.28;;
4198;SDS011;2113;50.946;14.610;2023-04-24T06:53:08;12.70;;;7.78;;
4198;SDS011;2113;50.946;14.610;2023-04-24T06:55:39;11.55;;;6.85;;
4198;SDS011;2113;50.946;14.610;2023-04-24T06:58:08;12.68;;;7.13;;
4198;SDS011;2113;50.946;14.610;2023-04-24T07:00:37;10.25;;;5.85;;
4198;SDS011;2113;50.946;14.610;2023-04-24T07:03:07;10.73;;;6.30;;
4198;SDS011;2113;50.946;14.610;2023-04-24T07:05:35;11.20;;;5.93;;
4198;SDS011;2113;50.946;14.610;2023-04-24T07:08:04;10.20;;;6.38;;
4198;SDS011;2113;50.946;14.610;2023-04-24T07:10:33;10.52;;;6.15;;
4198;SDS011;2113;50.946;14.610;2023-04-24T07:13:02;12.60;;;6.50;;
4198;SDS011;2113;50.946;14.610;2023-04-24T07:15:30;10.60;;;6.32;;
4198;SDS011;2113;50.946;14.610;2023-04-24T07:17:59;9.75;;;6.00;;
4198;SDS011;2113;50.946;14.610;2023-04-24T07:20:32;9.35;;;5.18;;
4198;SDS011;2113;50.946;14.610;2023-04-24T07:23:01;8.45;;;5.38;;
4198;SDS011;2113;50.946;14.610;2023-04-24T07:25:30;9.30;;;5.60;;
4198;SDS011;2113;50.946;14.610;2023-04-24T07:27:58;10.38;;;4.85;;
4198;SDS011;2113;50.946;14.610;2023-04-24T07:30:27;8.40;;;5.25;;
4198;SDS011;2113;50.946;14.610;2023-04-24T07:32:57;8.35;;;5.65;;
4198;SDS011;2113;50.946;14.610;2023-04-24T07:35:25;11.02;;;5.32;;
4198;SDS011;2113;50.946;14.610;2023-04-24T07:37:55;7.55;;;4.35;;
4198;SDS011;2113;50.946;14.610;2023-04-24T07:40:24;8.38;;;3.22;;
4198;SDS011;2113;50.946;14.610;2023-04-24T07:42:52;6.60;;;4.10;;
4198;SDS011;2113;50.946;14.610;2023-04-24T07:45:20;5.60;;;3.22;;
4198;SDS011;2113;50.946;14.610;2023-04-24T07:47:50;4.25;;;2.72;;
4198;SDS011;2113;50.946;14.610;2023-04-24T07:50:18;4.78;;;2.72;;
4198;SDS011;2113;50.946;14.610;2023-04-24T07:52:47;5.53;;;2.90;;
4198;SDS011;2113;50.946;14.610;2023-04-24T07:55:17;6.72;;;4.10;;
4198;SDS011;2113;50.946;14.610;2023-04-24T07:57:49;10.05;;;5.10;;
4198;SDS011;2113;50.946;14.610;2023-04-24T08:00:18;16.95;;;5.40;;
4198;SDS011;2113;50.946;14.610;2023-04-24T08:02:47;7.43;;;5.70;;
4198;SDS011;2113;50.946;14.610;2023-04-24T08:05:16;14.90;;;6.15;;
4198;SDS011;2113;50.946;14.610;2023-04-24T08:07:45;9.57;;;6.50;;
4198;SDS011;2113;50.946;14.610;2023-04-24T08:10:15;9.02;;;6.32;;
4198;SDS011;2113;50.946;14.610;2023-04-24T08:12:45;10.93;;;6.88;;
4198;SDS011;2113;50.946;14.610;2023-04-24T08:15:13;8.60;;;6.75;;
4198;SDS011;2113;50.946;14.610;2023-04-24T08:17:42;9.63;;;6.18;;
4198;SDS011;2113;50.946;14.610;2023-04-24T08:20:11;11.95;;;6.13;;
4198;SDS011;2113;50.946;14.610;2023-04-24T08:22:40;9.07;;;5.75;;
4198;SDS011;2113;50.946;14.610;2023-04-24T08:25:09;10.32;;;5.50;;
4198;SDS011;2113;50.946;14.610;2023-04-24T08:27:38;7.10;;;4.90;;
4198;SDS011;2113;50.946;14.610;2023-04-24T08:30:08;6.63;;;5.70;;
4198;SDS011;2113;50.946;14.610;2023-04-24T08:32:37;9.43;;;5.95;;
4198;SDS011;2113;50.946;14.610;2023-04-24T08:35:06;7.72;;;5.13;;
4198;SDS011;2113;50.946;14.610;2023-04-24T08:37:36;11.23;;;5.75;;
4198;SDS011;2113;50.946;14.610;2023-04-24T08:40:05;7.80;;;4.60;;
4198;SDS011;2113;50.946;14.610;2023-04-24T08:42:40;8.32;;;4.85;;
4198;SDS011;2113;50.946;14.610;2023-04-24T08:45:12;7.00;;;4.93;;
4198;SDS011;2113;50.946;14.610;2023-04-24T08:47:41;7.00;;;3.65;;
4198;SDS011;2113;50.946;14.610;2023-04-24T08:50:11;6.43;;;4.35;;
4198;SDS011;2113;50.946;14.610;2023-04-24T08:52:39;6.85;;;4.90;;
4198;SDS011;2113;50.946;14.610;2023-04-24T08:55:09;6.68;;;3.83;;
4198;SDS011;2113;50.946;14.610;2023-04-24T08:57:38;6.50;;;4.65;;
4198;SDS011;2113;50.946;14.610;2023-04-24T09:00:08;6.75;;;4.72;;
4198;SDS011;2113;50.946;14.610;2023-04-24T09:02:41;6.97;;;4.45;;
4198;SDS011;2113;50.946;14.610;2023-04-24T09:05:11;6.82;;;3.85;;
4198;SDS011;2113;50.946;14.610;2023-04-24T09:07:41;6.85;;;4.45;;
4198;SDS011;2113;50.946;14.610;2023-04-24T09:10:12;5.43;;;3.97;;
4198;SDS011;2113;50.946;14.610;2023-04-24T09:12:41;6.55;;;4.30;;
4198;SDS011;2113;50.946;14.610;2023-04-24T09:15:10;6.47;;;4.00;;
4198;SDS011;2113;50.946;14.610;2023-04-24T09:17:40;6.93;;;3.67;;
4198;SDS011;2113;50.946;14.610;2023-04-24T09:20:09;6.82;;;4.78;;
4198;SDS011;2113;50.946;14.610;2023-04-24T09:22:39;5.75;;;3.13;;
4198;SDS011;2113;50.946;14.610;2023-04-24T09:25:07;6.05;;;4.00;;
4198;SDS011;2113;50.946;14.610;2023-04-24T09:27:43;4.97;;;3.92;;
4198;SDS011;2113;50.946;14.610;2023-04-24T09:30:13;6.53;;;3.30;;
4198;SDS011;2113;50.946;14.610;2023-04-24T09:32:43;3.60;;;2.63;;
4198;SDS011;2113;50.946;14.610;2023-04-24T09:35:12;4.63;;;2.50;;
4198;SDS011;2113;50.946;14.610;2023-04-24T09:37:42;6.50;;;3.70;;
4198;SDS011;2113;50.946;14.610;2023-04-24T09:40:12;4.65;;;2.83;;
4198;SDS011;2113;50.946;14.610;2023-04-24T09:42:45;4.90;;;2.90;;
4198;SDS011;2113;50.946;14.610;2023-04-24T09:45:14;5.80;;;3.95;;
4198;SDS011;2113;50.946;14.610;2023-04-24T09:47:44;3.95;;;2.47;;
4198;SDS011;2113;50.946;14.610;2023-04-24T09:50:13;4.53;;;2.88;;
4198;SDS011;2113;50.946;14.610;2023-04-24T09:52:44;4.75;;;2.78;;
4198;SDS011;2113;50.946;14.610;2023-04-24T09:55:16;3.20;;;2.63;;
4198;SDS011;2113;50.946;14.610;2023-04-24T09:57:52;3.22;;;2.35;;
4198;SDS011;2113;50.946;14.610;2023-04-24T10:00:22;4.32;;;2.00;;
4198;SDS011;2113;50.946;14.610;2023-04-24T10:02:58;4.57;;;1.80;;
4198;SDS011;2113;50.946;14.610;2023-04-24T10:05:27;2.97;;;1.60;;
4198;SDS011;2113;50.946;14.610;2023-04-24T10:07:57;4.75;;;2.50;;
4198;SDS011;2113;50.946;14.610;2023-04-24T10:10:28;3.20;;;2.45;;
4198;SDS011;2113;50.946;14.610;2023-04-24T10:12:57;3.60;;;2.45;;
4198;SDS011;2113;50.946;14.610;2023-04-24T10:15:26;3.60;;;2.00;;
4198;SDS011;2113;50.946;14.610;2023-04-24T10:17:55;4.60;;;2.60;;
4198;SDS011;2113;50.946;14.610;2023-04-24T10:20:28;4.85;;;2.55;;
4198;SDS011;2113;50.946;14.610;2023-04-24T10:22:59;4.10;;;3.28;;
4198;SDS011;2113;50.946;14.610;2023-04-24T10:25:28;3.90;;;2.70;;
4198;SDS011;2113;50.946;14.610;2023-04-24T10:27:58;6.45;;;2.50;;
4198;SDS011;2113;50.946;14.610;2023-04-24T10:30:29;5.30;;;2.83;;
4198;SDS011;2113;50.946;14.610;2023-04-24T10:33:03;4.95;;;2.28;;
4198;SDS011;2113;50.946;14.610;2023-04-24T10:35:34;3.95;;;2.95;;
4198;SDS011;2113;50.946;14.610;2023-04-24T10:38:06;3.38;;;2.25;;
4198;SDS011;2113;50.946;14.610;2023-04-24T10:40:37;4.78;;;2.95;;
4198;SDS011;2113;50.946;14.610;2023-04-24T10:43:06;4.43;;;3.00;;
4198;SDS011;2113;50.946;14.610;2023-04-24T10:45:37;7.15;;;3.10;;
4198;SDS011;2113;50.946;14.610;2023-04-24T10:48:08;6.10;;;3.28;;
4198;SDS011;2113;50.946;14.610;2023-04-24T10:50:45;5.75;;;4.30;;
4198;SDS011;2113;50.946;14.610;2023-04-24T10:53:15;8.20;;;5.38;;
4198;SDS011;2113;50.946;14.610;2023-04-24T10:55:46;5.85;;;4.15;;
4198;SDS011;2113;50.946;14.610;2023-04-24T10:58:18;7.72;;;5.25;;
4198;SDS011;2113;50.946;14.610;2023-04-24T11:00:55;11.98;;;5.15;;
4198;SDS011;2113;50.946;14.610;2023-04-24T11:03:27;9.75;;;5.53;;
4198;SDS011;2113;50.946;14.610;2023-04-24T11:05:57;8.57;;;5.22;;
4198;SDS011;2113;50.946;14.610;2023-04-24T11:08:28;9.02;;;5.07;;
4198;SDS011;2113;50.946;14.610;2023-04-24T11:11:02;11.77;;;5.82;;
4198;SDS011;2113;50.946;14.610;2023-04-24T11:16:42;8.68;;;6.03;;
4198;SDS011;2113;50.946;14.610;2023-04-24T11:19:20;12.80;;;7.10;;
4198;SDS011;2113;50.946;14.610;2023-04-24T11:21:55;8.80;;;5.93;;
4198;SDS011;2113;50.946;14.610;2023-04-24T11:24:30;9.13;;;6.65;;
4198;SDS011;2113;50.946;14.610;2023-04-24T11:27:05;10.38;;;6.70;;
4198;SDS011;2113;50.946;14.610;2023-04-24T11:29:41;10.00;;;5.10;;
4198;SDS011;2113;50.946;14.610;2023-04-24T11:32:17;10.02;;;6.40;;
4198;SDS011;2113;50.946;14.610;2023-04-24T11:34:49;7.60;;;5.40;;
4198;SDS011;2113;50.946;14.610;2023-04-24T11:37:18;7.07;;;5.25;;
4198;SDS011;2113;50.946;14.610;2023-04-24T11:39:49;5.90;;;4.10;;
4198;SDS011;2113;50.946;14.610;2023-04-24T11:42:20;8.30;;;4.80;;
4198;SDS011;2113;50.946;14.610;2023-04-24T11:44:51;6.60;;;4.15;;
4198;SDS011;2113;50.946;14.610;2023-04-24T11:47:27;6.95;;;4.95;;
4198;SDS011;2113;50.946;14.610;2023-04-24T11:49:57;8.77;;;5.57;;
4198;SDS011;2113;50.946;14.610;2023-04-24T11:52:27;6.07;;;4.75;;
4198;SDS011;2113;50.946;14.610;2023-04-24T11:54:57;6.45;;;4.38;;
4198;SDS011;2113;50.946;14.610;2023-04-24T11:57:26;6.28;;;4.50;;
4198;SDS011;2113;50.946;14.610;2023-04-24T12:00:00;6.20;;;4.97;;
4198;SDS011;2113;50.946;14.610;2023-04-24T12:02:37;8.60;;;4.68;;
4198;SDS011;2113;50.946;14.610;2023-04-24T12:05:08;7.22;;;4.30;;
4198;SDS011;2113;50.946;14.610;2023-04-24T12:07:40;5.93;;;4.70;;
4198;SDS011;2113;50.946;14.610;2023-04-24T12:10:10;6.45;;;4.88;;
4198;SDS011;2113;50.946;14.610;2023-04-24T12:12:39;5.35;;;4.05;;
4198;SDS011;2113;50.946;14.610;2023-04-24T12:15:07;5.35;;;3.80;;
4198;SDS011;2113;50.946;14.610;2023-04-24T12:17:36;4.43;;;3.38;;
4198;SDS011;2113;50.946;14.610;2023-04-24T12:20:12;5.85;;;3.03;;
4198;SDS011;2113;50.946;14.610;2023-04-24T12:22:45;6.15;;;4.38;;
4198;SDS011;2113;50.946;14.610;2023-04-24T12:25:15;5.25;;;3.45;;
4198;SDS011;2113;50.946;14.610;2023-04-24T12:27:44;5.75;;;3.40;;
4198;SDS011;2113;50.946;14.610;2023-04-24T12:30:14;4.50;;;3.20;;
4198;SDS011;2113;50.946;14.610;2023-04-24T12:32:45;5.28;;;3.10;;
4198;SDS011;2113;50.946;14.610;2023-04-24T12:35:19;4.35;;;2.85;;
4198;SDS011;2113;50.946;14.610;2023-04-24T12:37:49;4.47;;;2.35;;
4198;SDS011;2113;50.946;14.610;2023-04-24T12:40:18;6.68;;;2.90;;
4198;SDS011;2113;50.946;14.610;2023-04-24T12:42:48;4.30;;;2.30;;
4198;SDS011;2113;50.946;14.610;2023-04-24T12:45:17;3.65;;;2.47;;
4198;SDS011;2113;50.946;14.610;2023-04-24T12:47:46;4.50;;;3.33;;
4198;SDS011;2113;50.946;14.610;2023-04-24T12:50:16;2.95;;;1.90;;
4198;SDS011;2113;50.946;14.610;2023-04-24T12:52:46;5.22;;;2.45;;
4198;SDS011;2113;50.946;14.610;2023-04-24T12:55:14;2.88;;;2.33;;
4198;SDS011;2113;50.946;14.610;2023-04-24T12:57:42;4.55;;;2.45;;
4198;SDS011;2113;50.946;14.610;2023-04-24T13:00:11;3.28;;;2.15;;
4198;SDS011;2113;50.946;14.610;2023-04-24T13:02:40;3.20;;;2.28;;
4198;SDS011;2113;50.946;14.610;2023-04-24T13:05:09;4.80;;;2.10;;
4198;SDS011;2113;50.946;14.610;2023-04-24T13:07:38;3.00;;;2.28;;
4198;SDS011;2113;50.946;14.610;2023-04-24T13:10:08;4.28;;;3.25;;
4198;SDS011;2113;50.946;14.610;2023-04-24T13:12:37;4.90;;;2.55;;
4198;SDS011;2113;50.946;14.610;2023-04-24T13:15:07;4.65;;;2.75;;
4198;SDS011;2113;50.946;14.610;2023-04-24T13:17:36;4.57;;;3.00;;
4198;SDS011;2113;50.946;14.610;2023-04-24T13:20:04;4.40;;;3.50;;
4198;SDS011;2113;50.946;14.610;2023-04-24T13:22:33;5.25;;;3.00;;
4198;SDS011;2113;50.946;14.610;2023-04-24T13:25:02;4.65;;;2.75;;
4198;SDS011;2113;50.946;14.610;2023-04-24T13:27:34;4.53;;;3.10;;
4198;SDS011;2113;50.946;14.610;2023-04-24T13:30:02;4.70;;;3.20;;
4198;SDS011;2113;50.946;14.610;2023-04-24T13:32:31;4.85;;;3.85;;
4198;SDS011;2113;50.946;14.610;2023-04-24T13:35:02;4.28;;;3.10;;
4198;SDS011;2113;50.946;14.610;2023-04-24T13:37:31;3.65;;;2.75;;
4198;SDS011;2113;50.946;14.610;2023-04-24T13:40:00;5.55;;;2.97;;
4198;SDS011;2113;50.946;14.610;2023-04-24T13:42:28;2.13;;;1.00;;
4198;SDS011;2113;50.946;14.610;2023-04-24T13:44:58;2.85;;;1.40;;
4198;SDS011;2113;50.946;14.610;2023-04-24T13:47:39;5.38;;;3.22;;
4198;SDS011;2113;50.946;14.610;2023-04-24T13:54:17;3.95;;;1.00;;
4198;SDS011;2113;50.946;14.610;2023-04-24T13:56:45;2.88;;;1.65;;
4198;SDS011;2113;50.946;14.610;2023-04-24T13:59:14;2.90;;;1.27;;
4198;SDS011;2113;50.946;14.610;2023-04-24T14:01:43;6.35;;;1.60;;
4198;SDS011;2113;50.946;14.610;2023-04-24T14:04:12;13.00;;;2.20;;
4198;SDS011;2113;50.946;14.610;2023-04-24T14:06:41;3.95;;;2.35;;
4198;SDS011;2113;50.946;14.610;2023-04-24T14:09:09;5.32;;;2.50;;
4198;SDS011;2113;50.946;14.610;2023-04-24T14:11:37;6.97;;;2.85;;
4198;SDS011;2113;50.946;14.610;2023-04-24T14:14:06;5.35;;;2.70;;
4198;SDS011;2113;50.946;14.610;2023-04-24T14:16:34;6.95;;;2.67;;
4198;SDS011;2113;50.946;14.610;2023-04-24T14:19:04;3.38;;;2.03;;
4198;SDS011;2113;50.946;14.610;2023-04-24T14:21:32;7.05;;;3.10;;
4198;SDS011;2113;50.946;14.610;2023-04-24T14:24:02;4.82;;;2.10;;
4198;SDS011;2113;50.946;14.610;2023-04-24T14:26:30;4.65;;;2.10;;
4198;SDS011;2113;50.946;14.610;2023-04-24T14:28:58;7.47;;;2.55;;
4198;SDS011;2113;50.946;14.610;2023-04-24T14:31:40;4.05;;;2.65;;
4198;SDS011;2113;50.946;14.610;2023-04-24T14:34:10;6.82;;;3.15;;
4198;SDS011;2113;50.946;14.610;2023-04-24T14:36:42;7.75;;;3.05;;
4198;SDS011;2113;50.946;14.610;2023-04-24T14:39:10;14.80;;;2.80;;
4198;SDS011;2113;50.946;14.610;2023-04-24T14:41:38;4.45;;;2.10;;
4198;SDS011;2113;50.946;14.610;2023-04-24T14:44:06;3.85;;;2.80;;
4198;SDS011;2113;50.946;14.610;2023-04-24T14:46:35;3.75;;;2.50;;
4198;SDS011;2113;50.946;14.610;2023-04-24T14:49:03;7.82;;;2.40;;
4198;SDS011;2113;50.946;14.610;2023-04-24T14:51:33;3.83;;;2.65;;
4198;SDS011;2113;50.946;14.610;2023-04-24T14:54:01;4.72;;;3.10;;
4198;SDS011;2113;50.946;14.610;2023-04-24T14:56:30;5.22;;;3.15;;
4198;SDS011;2113;50.946;14.610;2023-04-24T14:58:59;6.00;;;3.35;;
4198;SDS011;2113;50.946;14.610;2023-04-24T15:01:27;5.13;;;3.00;;
4198;SDS011;2113;50.946;14.610;2023-04-24T15:03:55;5.15;;;3.15;;
4198;SDS011;2113;50.946;14.610;2023-04-24T15:06:24;4.35;;;2.55;;
4198;SDS011;2113;50.946;14.610;2023-04-24T15:08:53;4.90;;;3.17;;
4198;SDS011;2113;50.946;14.610;2023-04-24T15:11:22;4.10;;;2.60;;
4198;SDS011;2113;50.946;14.610;2023-04-24T15:13:50;3.45;;;2.30;;
4198;SDS011;2113;50.946;14.610;2023-04-24T15:16:19;4.03;;;2.70;;
4198;SDS011;2113;50.946;14.610;2023-04-24T15:18:47;3.38;;;2.00;;